sensor_id;sensor_type;location;lat;lon;timestamp;P1;durP1;ratioP1;P2;durP2;ratioP2
28427;SDS011;15662;49.128;8.520;2023-02-03T00:02:37;3.15;;;1.40;;
28427;SDS011;15662;49.128;8.520;2023-02-03T00:05:06;2.90;;;1.48;;
28427;SDS011;15662;49.128;8.520;2023-02-03T00:07:35;4.00;;;1.50;;
28427;SDS011;15662;49.128;8.520;2023-02-03T00:10:05;4.55;;;1.58;;
28427;SDS011;15662;49.128;8.520;2023-02-03T00:12:33;3.70;;;1.20;;
28427;SDS011;15662;49.128;8.520;2023-02-03T00:15:01;3.72;;;1.42;;
28427;SDS011;15662;49.128;8.520;2023-02-03T00:17:30;2.15;;;1.40;;
28427;SDS011;15662;49.128;8.520;2023-02-03T00:19:57;2.70;;;1.33;;
28427;SDS011;15662;49.128;8.520;2023-02-03T00:22:25;2.47;;;1.15;;
28427;SDS011;15662;49.128;8.520;2023-02-03T00:24:53;3.30;;;1.30;;
28427;SDS011;15662;49.128;8.520;2023-02-03T00:27:21;2.88;;;1.73;;
28427;SDS011;15662;49.128;8.520;2023-02-03T00:29:49;3.40;;;1.52;;
28427;SDS011;15662;49.128;8.520;2023-02-03T00:32:17;2.88;;;1.27;;
28427;SDS011;15662;49.128;8.520;2023-02-03T00:34:45;3.47;;;1.40;;
28427;SDS011;15662;49.128;8.520;2023-02-03T00:37:13;3.22;;;1.50;;
28427;SDS011;15662;49.128;8.520;2023-02-03T00:39:41;3.10;;;1.60;;
28427;SDS011;15662;49.128;8.520;2023-02-03T00:42:09;3.30;;;1.50;;
28427;SDS011;15662;49.128;8.520;2023-02-03T00:44:37;2.53;;;1.50;;
28427;SDS011;15662;49.128;8.520;2023-02-03T00:47:05;4.47;;;2.05;;
28427;SDS011;15662;49.128;8.520;2023-02-03T00:49:33;2.47;;;1.45;;
28427;SDS011;15662;49.128;8.520;2023-02-03T00:52:01;2.80;;;1.60;;
28427;SDS011;15662;49.128;8.520;2023-02-03T00:54:29;4.90;;;1.60;;
28427;SDS011;15662;49.128;8.520;2023-02-03T00:56:59;4.20;;;1.67;;
28427;SDS011;15662;49.128;8.520;2023-02-03T00:59:27;3.00;;;1.30;;
28427;SDS011;15662;49.128;8.520;2023-02-03T01:01:55;4.05;;;1.48;;
28427;SDS011;15662;49.128;8.520;2023-02-03T01:04:23;2.55;;;1.30;;
28427;SDS011;15662;49.128;8.520;2023-02-03T01:06:52;3.35;;;1.38;;
28427;SDS011;15662;49.128;8.520;2023-02-03T01:09:23;1.77;;;1.27;;
28427;SDS011;15662;49.128;8.520;2023-02-03T01:11:53;3.70;;;1.50;;
28427;SDS011;15662;49.128;8.520;2023-02-03T01:14:21;3.55;;;1.55;;
28427;SDS011;15662;49.128;8.520;2023-02-03T01:16:49;1.95;;;1.50;;
28427;SDS011;15662;49.128;8.520;2023-02-03T01:19:17;3.30;;;1.60;;
28427;SDS011;15662;49.128;8.520;2023-02-03T01:21:45;3.38;;;1.55;;
28427;SDS011;15662;49.128;8.520;2023-02-03T01:24:13;3.17;;;1.35;;
28427;SDS011;15662;49.128;8.520;2023-02-03T01:26:41;2.83;;;1.60;;
28427;SDS011;15662;49.128;8.520;2023-02-03T01:29:09;2.42;;;1.30;;
28427;SDS011;15662;49.128;8.520;2023-02-03T01:31:38;3.40;;;1.52;;
28427;SDS011;15662;49.128;8.520;2023-02-03T01:34:12;2.95;;;1.65;;
28427;SDS011;15662;49.128;8.520;2023-02-03T01:36:42;3.60;;;1.60;;
28427;SDS011;15662;49.128;8.520;2023-02-03T01:39:13;4.35;;;1.60;;
28427;SDS011;15662;49.128;8.520;2023-02-03T01:41:40;2.72;;;1.48;;
28427;SDS011;15662;49.128;8.520;2023-02-03T01:50:20;2.95;;;1.58;;
28427;SDS011;15662;49.128;8.520;2023-02-03T01:53:00;2.50;;;1.48;;
28427;SDS011;15662;49.128;8.520;2023-02-03T01:55:33;2.58;;;1.20;;
28427;SDS011;15662;49.128;8.520;2023-02-03T01:58:15;2.75;;;1.40;;
28427;SDS011;15662;49.128;8.520;2023-02-03T02:00:52;3.35;;;1.60;;
28427;SDS011;15662;49.128;8.520;2023-02-03T02:03:24;2.07;;;1.60;;
28427;SDS011;15662;49.128;8.520;2023-02-03T02:06:07;2.47;;;1.30;;
28427;SDS011;15662;49.128;8.520;2023-02-03T02:08:39;2.38;;;1.30;;
28427;SDS011;15662;49.128;8.520;2023-02-03T02:11:13;2.67;;;1.65;;
28427;SDS011;15662;49.128;8.520;2023-02-03T02:13:42;2.10;;;1.38;;
28427;SDS011;15662;49.128;8.520;2023-02-03T02:16:15;2.13;;;1.50;;
28427;SDS011;15662;49.128;8.520;2023-02-03T02:39:11;1.65;;;1.20;;
28427;SDS011;15662;49.128;8.520;2023-02-03T02:41:55;4.47;;;1.20;;
28427;SDS011;15662;49.128;8.520;2023-02-03T02:44:33;1.20;;;1.10;;
28427;SDS011;15662;49.128;8.520;2023-02-03T02:47:15;2.28;;;1.02;;
28427;SDS011;15662;49.128;8.520;2023-02-03T02:50:11;3.23;;;1.30;;
28427;SDS011;15662;49.128;8.520;2023-02-03T02:53:08;1.10;;;1.00;;
28427;SDS011;15662;49.128;8.520;2023-02-03T02:55:40;1.25;;;0.95;;
28427;SDS011;15662;49.128;8.520;2023-02-03T02:58:10;2.15;;;1.13;;
28427;SDS011;15662;49.128;8.520;2023-02-03T03:00:43;1.05;;;0.98;;
28427;SDS011;15662;49.128;8.520;2023-02-03T03:03:19;2.03;;;1.42;;
28427;SDS011;15662;49.128;8.520;2023-02-03T03:05:58;1.83;;;1.17;;
28427;SDS011;15662;49.128;8.520;2023-02-03T03:08:59;2.80;;;1.20;;
28427;SDS011;15662;49.128;8.520;2023-02-03T03:11:47;1.92;;;1.20;;
28427;SDS011;15662;49.128;8.520;2023-02-03T03:14:20;3.33;;;1.25;;
28427;SDS011;15662;49.128;8.520;2023-02-03T03:16:53;1.98;;;1.15;;
28427;SDS011;15662;49.128;8.520;2023-02-03T03:19:31;2.25;;;1.15;;
28427;SDS011;15662;49.128;8.520;2023-02-03T03:22:06;1.95;;;1.10;;
28427;SDS011;15662;49.128;8.520;2023-02-03T03:24:42;1.23;;;1.02;;
28427;SDS011;15662;49.128;8.520;2023-02-03T03:27:20;2.75;;;1.20;;
28427;SDS011;15662;49.128;8.520;2023-02-03T03:29:53;2.63;;;1.23;;
28427;SDS011;15662;49.128;8.520;2023-02-03T03:32:26;1.40;;;1.10;;
28427;SDS011;15662;49.128;8.520;2023-02-03T03:34:56;1.60;;;1.25;;
28427;SDS011;15662;49.128;8.520;2023-02-03T03:40:40;2.13;;;1.30;;
28427;SDS011;15662;49.128;8.520;2023-02-03T03:43:17;1.17;;;1.08;;
28427;SDS011;15662;49.128;8.520;2023-02-03T03:48:29;1.77;;;1.17;;
28427;SDS011;15662;49.128;8.520;2023-02-03T03:51:09;2.92;;;1.30;;
28427;SDS011;15662;49.128;8.520;2023-02-03T03:53:45;2.67;;;1.38;;
28427;SDS011;15662;49.128;8.520;2023-02-03T03:58:50;2.97;;;1.30;;
28427;SDS011;15662;49.128;8.520;2023-02-03T04:01:19;2.17;;;1.13;;
28427;SDS011;15662;49.128;8.520;2023-02-03T04:03:51;2.03;;;1.33;;
28427;SDS011;15662;49.128;8.520;2023-02-03T04:06:27;1.95;;;1.35;;
28427;SDS011;15662;49.128;8.520;2023-02-03T04:08:55;2.95;;;1.48;;
28427;SDS011;15662;49.128;8.520;2023-02-03T04:11:24;1.65;;;1.50;;
28427;SDS011;15662;49.128;8.520;2023-02-03T04:14:11;2.65;;;1.20;;
28427;SDS011;15662;49.128;8.520;2023-02-03T04:16:39;2.33;;;1.45;;
28427;SDS011;15662;49.128;8.520;2023-02-03T04:19:06;3.25;;;1.38;;
28427;SDS011;15662;49.128;8.520;2023-02-03T04:21:34;1.65;;;1.45;;
28427;SDS011;15662;49.128;8.520;2023-02-03T04:24:02;1.55;;;1.30;;
28427;SDS011;15662;49.128;8.520;2023-02-03T04:26:30;2.75;;;1.33;;
28427;SDS011;15662;49.128;8.520;2023-02-03T04:28:58;2.08;;;1.40;;
28427;SDS011;15662;49.128;8.520;2023-02-03T04:31:26;1.50;;;1.33;;
28427;SDS011;15662;49.128;8.520;2023-02-03T04:33:54;2.22;;;1.17;;
28427;SDS011;15662;49.128;8.520;2023-02-03T04:36:22;1.58;;;1.20;;
28427;SDS011;15662;49.128;8.520;2023-02-03T04:38:50;3.30;;;2.00;;
28427;SDS011;15662;49.128;8.520;2023-02-03T04:41:18;1.75;;;1.52;;
28427;SDS011;15662;49.128;8.520;2023-02-03T04:43:46;3.58;;;1.52;;
28427;SDS011;15662;49.128;8.520;2023-02-03T04:46:14;2.47;;;1.40;;
28427;SDS011;15662;49.128;8.520;2023-02-03T04:48:42;1.70;;;1.02;;
28427;SDS011;15662;49.128;8.520;2023-02-03T04:51:13;2.08;;;1.00;;
28427;SDS011;15662;49.128;8.520;2023-02-03T04:53:41;2.17;;;1.08;;
28427;SDS011;15662;49.128;8.520;2023-02-03T04:56:08;1.42;;;1.00;;
28427;SDS011;15662;49.128;8.520;2023-02-03T04:58:36;1.08;;;0.98;;
28427;SDS011;15662;49.128;8.520;2023-02-03T05:01:05;1.33;;;1.10;;
28427;SDS011;15662;49.128;8.520;2023-02-03T05:03:35;1.65;;;0.95;;
28427;SDS011;15662;49.128;8.520;2023-02-03T05:06:03;1.80;;;0.90;;
28427;SDS011;15662;49.128;8.520;2023-02-03T05:08:31;1.67;;;1.20;;
28427;SDS011;15662;49.128;8.520;2023-02-03T05:10:59;1.67;;;1.33;;
28427;SDS011;15662;49.128;8.520;2023-02-03T05:13:28;2.83;;;1.15;;
28427;SDS011;15662;49.128;8.520;2023-02-03T05:15:56;1.10;;;1.00;;
28427;SDS011;15662;49.128;8.520;2023-02-03T05:18:24;1.92;;;1.13;;
28427;SDS011;15662;49.128;8.520;2023-02-03T05:20:52;2.08;;;1.10;;
28427;SDS011;15662;49.128;8.520;2023-02-03T05:23:19;2.13;;;1.13;;
28427;SDS011;15662;49.128;8.520;2023-02-03T05:25:48;2.28;;;1.02;;
28427;SDS011;15662;49.128;8.520;2023-02-03T05:28:16;2.25;;;1.02;;
28427;SDS011;15662;49.128;8.520;2023-02-03T05:30:43;1.02;;;1.02;;
28427;SDS011;15662;49.128;8.520;2023-02-03T05:33:11;1.13;;;0.90;;
28427;SDS011;15662;49.128;8.520;2023-02-03T05:35:39;2.38;;;1.10;;
28427;SDS011;15662;49.128;8.520;2023-02-03T05:38:07;3.30;;;1.30;;
28427;SDS011;15662;49.128;8.520;2023-02-03T05:40:34;1.65;;;1.27;;
28427;SDS011;15662;49.128;8.520;2023-02-03T05:43:21;1.20;;;1.10;;
28427;SDS011;15662;49.128;8.520;2023-02-03T05:45:49;1.45;;;1.15;;
28427;SDS011;15662;49.128;8.520;2023-02-03T05:48:17;2.90;;;1.25;;
28427;SDS011;15662;49.128;8.520;2023-02-03T05:50:45;2.20;;;1.20;;
28427;SDS011;15662;49.128;8.520;2023-02-03T05:53:13;2.65;;;1.20;;
28427;SDS011;15662;49.128;8.520;2023-02-03T05:55:40;2.75;;;1.40;;
28427;SDS011;15662;49.128;8.520;2023-02-03T05:58:09;2.00;;;1.58;;
28427;SDS011;15662;49.128;8.520;2023-02-03T06:00:37;2.65;;;1.33;;
28427;SDS011;15662;49.128;8.520;2023-02-03T06:03:05;3.67;;;1.40;;
28427;SDS011;15662;49.128;8.520;2023-02-03T06:05:33;2.88;;;1.10;;
28427;SDS011;15662;49.128;8.520;2023-02-03T06:08:04;0.98;;;0.98;;
28427;SDS011;15662;49.128;8.520;2023-02-03T06:10:32;1.92;;;1.40;;
28427;SDS011;15662;49.128;8.520;2023-02-03T06:13:07;2.15;;;1.55;;
28427;SDS011;15662;49.128;8.520;2023-02-03T06:15:40;4.05;;;1.50;;
28427;SDS011;15662;49.128;8.520;2023-02-03T06:18:08;3.55;;;1.33;;
28427;SDS011;15662;49.128;8.520;2023-02-03T06:20:36;1.90;;;1.30;;
28427;SDS011;15662;49.128;8.520;2023-02-03T06:23:04;2.33;;;1.40;;
28427;SDS011;15662;49.128;8.520;2023-02-03T06:25:32;1.20;;;1.10;;
28427;SDS011;15662;49.128;8.520;2023-02-03T06:28:01;1.42;;;1.10;;
28427;SDS011;15662;49.128;8.520;2023-02-03T06:30:29;4.68;;;1.20;;
28427;SDS011;15662;49.128;8.520;2023-02-03T06:32:57;1.88;;;1.23;;
28427;SDS011;15662;49.128;8.520;2023-02-03T06:35:25;2.65;;;1.70;;
28427;SDS011;15662;49.128;8.520;2023-02-03T06:37:53;2.05;;;1.42;;
28427;SDS011;15662;49.128;8.520;2023-02-03T06:40:21;1.75;;;1.30;;
28427;SDS011;15662;49.128;8.520;2023-02-03T06:42:49;2.60;;;1.33;;
28427;SDS011;15662;49.128;8.520;2023-02-03T06:45:17;1.30;;;1.20;;
28427;SDS011;15662;49.128;8.520;2023-02-03T06:47:45;2.30;;;1.30;;
28427;SDS011;15662;49.128;8.520;2023-02-03T06:52:42;1.50;;;1.00;;
28427;SDS011;15662;49.128;8.520;2023-02-03T06:55:10;3.20;;;1.40;;
28427;SDS011;15662;49.128;8.520;2023-02-03T06:57:41;1.55;;;1.33;;
28427;SDS011;15662;49.128;8.520;2023-02-03T07:00:15;1.88;;;1.20;;
28427;SDS011;15662;49.128;8.520;2023-02-03T07:02:52;1.98;;;1.23;;
28427;SDS011;15662;49.128;8.520;2023-02-03T07:05:22;1.48;;;1.38;;
28427;SDS011;15662;49.128;8.520;2023-02-03T07:07:51;2.08;;;1.40;;
28427;SDS011;15662;49.128;8.520;2023-02-03T07:10:20;3.45;;;1.35;;
28427;SDS011;15662;49.128;8.520;2023-02-03T07:12:48;1.73;;;1.40;;
28427;SDS011;15662;49.128;8.520;2023-02-03T07:15:17;2.65;;;1.23;;
28427;SDS011;15662;49.128;8.520;2023-02-03T07:17:46;2.28;;;1.30;;
28427;SDS011;15662;49.128;8.520;2023-02-03T07:20:21;1.98;;;1.30;;
28427;SDS011;15662;49.128;8.520;2023-02-03T07:22:51;2.15;;;1.38;;
28427;SDS011;15662;49.128;8.520;2023-02-03T07:25:22;1.83;;;1.10;;
28427;SDS011;15662;49.128;8.520;2023-02-03T07:27:50;1.85;;;1.30;;
28427;SDS011;15662;49.128;8.520;2023-02-03T07:30:19;2.40;;;1.20;;
28427;SDS011;15662;49.128;8.520;2023-02-03T07:32:47;1.80;;;1.20;;
28427;SDS011;15662;49.128;8.520;2023-02-03T07:35:16;2.05;;;1.55;;
28427;SDS011;15662;49.128;8.520;2023-02-03T07:37:45;2.03;;;1.48;;
28427;SDS011;15662;49.128;8.520;2023-02-03T07:40:13;3.83;;;1.30;;
28427;SDS011;15662;49.128;8.520;2023-02-03T07:42:47;3.17;;;1.20;;
28427;SDS011;15662;49.128;8.520;2023-02-03T07:45:16;2.53;;;1.30;;
28427;SDS011;15662;49.128;8.520;2023-02-03T07:47:45;2.28;;;1.30;;
28427;SDS011;15662;49.128;8.520;2023-02-03T07:50:13;2.63;;;1.88;;
28427;SDS011;15662;49.128;8.520;2023-02-03T07:52:43;1.80;;;1.40;;
28427;SDS011;15662;49.128;8.520;2023-02-03T07:55:10;2.47;;;1.42;;
28427;SDS011;15662;49.128;8.520;2023-02-03T07:57:38;1.92;;;1.25;;
28427;SDS011;15662;49.128;8.520;2023-02-03T08:00:10;2.58;;;1.30;;
28427;SDS011;15662;49.128;8.520;2023-02-03T08:02:42;2.42;;;1.55;;
28427;SDS011;15662;49.128;8.520;2023-02-03T08:05:10;2.08;;;1.40;;
28427;SDS011;15662;49.128;8.520;2023-02-03T08:07:39;2.53;;;1.50;;
28427;SDS011;15662;49.128;8.520;2023-02-03T08:10:07;3.92;;;1.42;;
28427;SDS011;15662;49.128;8.520;2023-02-03T08:12:38;1.95;;;1.27;;
28427;SDS011;15662;49.128;8.520;2023-02-03T08:15:06;2.10;;;1.30;;
28427;SDS011;15662;49.128;8.520;2023-02-03T08:17:35;4.22;;;1.30;;
28427;SDS011;15662;49.128;8.520;2023-02-03T08:20:09;2.67;;;1.13;;
28427;SDS011;15662;49.128;8.520;2023-02-03T08:22:37;2.05;;;1.40;;
28427;SDS011;15662;49.128;8.520;2023-02-03T08:25:06;2.60;;;1.77;;
28427;SDS011;15662;49.128;8.520;2023-02-03T08:27:35;4.38;;;1.60;;
28427;SDS011;15662;49.128;8.520;2023-02-03T08:30:04;2.13;;;1.52;;
28427;SDS011;15662;49.128;8.520;2023-02-03T08:32:35;2.75;;;1.48;;
28427;SDS011;15662;49.128;8.520;2023-02-03T08:35:03;2.97;;;1.60;;
28427;SDS011;15662;49.128;8.520;2023-02-03T08:37:31;3.67;;;2.00;;
28427;SDS011;15662;49.128;8.520;2023-02-03T08:40:00;2.95;;;1.60;;
28427;SDS011;15662;49.128;8.520;2023-02-03T08:42:28;4.40;;;1.40;;
28427;SDS011;15662;49.128;8.520;2023-02-03T08:44:57;2.30;;;1.50;;
28427;SDS011;15662;49.128;8.520;2023-02-03T08:47:25;2.25;;;1.45;;
28427;SDS011;15662;49.128;8.520;2023-02-03T08:49:53;2.72;;;1.38;;
28427;SDS011;15662;49.128;8.520;2023-02-03T08:52:21;2.00;;;1.65;;
28427;SDS011;15662;49.128;8.520;2023-02-03T08:54:49;4.40;;;1.40;;
28427;SDS011;15662;49.128;8.520;2023-02-03T08:57:17;2.25;;;1.17;;
28427;SDS011;15662;49.128;8.520;2023-02-03T08:59:46;2.58;;;1.60;;
28427;SDS011;15662;49.128;8.520;2023-02-03T09:02:17;3.95;;;1.45;;
28427;SDS011;15662;49.128;8.520;2023-02-03T09:04:46;4.32;;;1.80;;
28427;SDS011;15662;49.128;8.520;2023-02-03T09:07:15;6.82;;;2.00;;
28427;SDS011;15662;49.128;8.520;2023-02-03T09:09:43;2.70;;;1.40;;
28427;SDS011;15662;49.128;8.520;2023-02-03T09:12:11;1.45;;;1.35;;
28427;SDS011;15662;49.128;8.520;2023-02-03T09:14:39;2.10;;;1.42;;
28427;SDS011;15662;49.128;8.520;2023-02-03T09:17:07;1.67;;;1.27;;
28427;SDS011;15662;49.128;8.520;2023-02-03T09:19:36;2.35;;;1.60;;
28427;SDS011;15662;49.128;8.520;2023-02-03T09:22:04;4.03;;;1.40;;
28427;SDS011;15662;49.128;8.520;2023-02-03T09:24:32;1.98;;;1.50;;
28427;SDS011;15662;49.128;8.520;2023-02-03T09:27:00;2.10;;;1.48;;
28427;SDS011;15662;49.128;8.520;2023-02-03T09:29:28;3.42;;;1.65;;
28427;SDS011;15662;49.128;8.520;2023-02-03T09:31:56;4.82;;;1.70;;
28427;SDS011;15662;49.128;8.520;2023-02-03T09:34:24;2.85;;;1.35;;
28427;SDS011;15662;49.128;8.520;2023-02-03T09:36:52;2.90;;;1.75;;
28427;SDS011;15662;49.128;8.520;2023-02-03T09:39:20;2.28;;;1.50;;
28427;SDS011;15662;49.128;8.520;2023-02-03T09:47:33;2.50;;;1.25;;
28427;SDS011;15662;49.128;8.520;2023-02-03T09:50:06;2.20;;;1.55;;
28427;SDS011;15662;49.128;8.520;2023-02-03T09:52:49;1.52;;;1.40;;
28427;SDS011;15662;49.128;8.520;2023-02-03T09:55:35;2.72;;;1.45;;
28427;SDS011;15662;49.128;8.520;2023-02-03T09:58:13;1.45;;;1.30;;
28427;SDS011;15662;49.128;8.520;2023-02-03T10:00:56;3.22;;;1.45;;
28427;SDS011;15662;49.128;8.520;2023-02-03T10:03:34;2.03;;;1.70;;
28427;SDS011;15662;49.128;8.520;2023-02-03T10:15:33;2.83;;;1.40;;
28427;SDS011;15662;49.128;8.520;2023-02-03T10:18:49;2.22;;;1.50;;
28427;SDS011;15662;49.128;8.520;2023-02-03T10:21:30;2.35;;;1.45;;
28427;SDS011;15662;49.128;8.520;2023-02-03T10:24:14;2.25;;;1.25;;
28427;SDS011;15662;49.128;8.520;2023-02-03T10:27:16;1.75;;;1.20;;
28427;SDS011;15662;49.128;8.520;2023-02-03T10:30:05;2.00;;;1.30;;
28427;SDS011;15662;49.128;8.520;2023-02-03T10:33:12;2.63;;;1.42;;
28427;SDS011;15662;49.128;8.520;2023-02-03T10:35:51;1.40;;;1.23;;
28427;SDS011;15662;49.128;8.520;2023-02-03T10:41:26;1.70;;;1.20;;
28427;SDS011;15662;49.128;8.520;2023-02-03T10:43:56;3.58;;;1.35;;
28427;SDS011;15662;49.128;8.520;2023-02-03T10:46:27;2.28;;;1.40;;
28427;SDS011;15662;49.128;8.520;2023-02-03T10:49:00;2.90;;;1.40;;
28427;SDS011;15662;49.128;8.520;2023-02-03T10:51:29;2.00;;;1.00;;
28427;SDS011;15662;49.128;8.520;2023-02-03T10:54:27;1.50;;;1.00;;
28427;SDS011;15662;49.128;8.520;2023-02-03T10:57:03;2.00;;;1.10;;
28427;SDS011;15662;49.128;8.520;2023-02-03T10:59:40;1.17;;;1.08;;
28427;SDS011;15662;49.128;8.520;2023-02-03T11:07:43;2.35;;;1.00;;
28427;SDS011;15662;49.128;8.520;2023-02-03T11:13:16;1.90;;;1.00;;
28427;SDS011;15662;49.128;8.520;2023-02-03T11:18:36;1.00;;;0.90;;
28427;SDS011;15662;49.128;8.520;2023-02-03T11:26:58;2.28;;;1.00;;
28427;SDS011;15662;49.128;8.520;2023-02-03T11:29:33;0.80;;;0.80;;
28427;SDS011;15662;49.128;8.520;2023-02-03T11:32:06;0.60;;;0.60;;
28427;SDS011;15662;49.128;8.520;2023-02-03T11:35:11;1.33;;;0.90;;
28427;SDS011;15662;49.128;8.520;2023-02-03T11:37:52;0.90;;;0.65;;
28427;SDS011;15662;49.128;8.520;2023-02-03T11:40:29;0.70;;;0.60;;
28427;SDS011;15662;49.128;8.520;2023-02-03T11:43:04;1.05;;;0.63;;
28427;SDS011;15662;49.128;8.520;2023-02-03T11:45:49;0.88;;;0.70;;
28427;SDS011;15662;49.128;8.520;2023-02-03T11:48:30;0.57;;;0.57;;
28427;SDS011;15662;49.128;8.520;2023-02-03T12:00:09;0.88;;;0.60;;
28427;SDS011;15662;49.128;8.520;2023-02-03T12:05:08;0.70;;;0.52;;
28427;SDS011;15662;49.128;8.520;2023-02-03T12:26:18;0.82;;;0.70;;
28427;SDS011;15662;49.128;8.520;2023-02-03T12:29:05;1.85;;;0.70;;
28427;SDS011;15662;49.128;8.520;2023-02-03T12:31:45;0.60;;;0.60;;
28427;SDS011;15662;49.128;8.520;2023-02-03T12:37:20;0.57;;;0.57;;
28427;SDS011;15662;49.128;8.520;2023-02-03T12:42:50;1.50;;;0.70;;
28427;SDS011;15662;49.128;8.520;2023-02-03T12:45:28;0.50;;;0.50;;
28427;SDS011;15662;49.128;8.520;2023-02-03T12:48:05;1.45;;;0.80;;
28427;SDS011;15662;49.128;8.520;2023-02-03T12:50:43;0.73;;;0.70;;
28427;SDS011;15662;49.128;8.520;2023-02-03T12:53:18;1.85;;;0.82;;
28427;SDS011;15662;49.128;8.520;2023-02-03T12:55:57;0.85;;;0.85;;
28427;SDS011;15662;49.128;8.520;2023-02-03T12:58:38;0.70;;;0.70;;
28427;SDS011;15662;49.128;8.520;2023-02-03T13:01:19;0.75;;;0.60;;
28427;SDS011;15662;49.128;8.520;2023-02-03T13:04:14;0.60;;;0.60;;
28427;SDS011;15662;49.128;8.520;2023-02-03T13:07:04;0.70;;;0.70;;
28427;SDS011;15662;49.128;8.520;2023-02-03T13:10:02;0.52;;;0.50;;
28427;SDS011;15662;49.128;8.520;2023-02-03T13:12:45;0.90;;;0.75;;
28427;SDS011;15662;49.128;8.520;2023-02-03T13:18:08;1.48;;;0.70;;
28427;SDS011;15662;49.128;8.520;2023-02-03T13:20:45;2.05;;;1.10;;
28427;SDS011;15662;49.128;8.520;2023-02-03T13:23:13;0.75;;;0.50;;
28427;SDS011;15662;49.128;8.520;2023-02-03T13:26:05;0.68;;;0.68;;
28427;SDS011;15662;49.128;8.520;2023-02-03T13:38:33;0.95;;;0.57;;
28427;SDS011;15662;49.128;8.520;2023-02-03T13:44:35;0.88;;;0.57;;
28427;SDS011;15662;49.128;8.520;2023-02-03T13:47:05;1.98;;;0.50;;
28427;SDS011;15662;49.128;8.520;2023-02-03T13:49:48;1.52;;;0.60;;
28427;SDS011;15662;49.128;8.520;2023-02-03T13:52:44;0.75;;;0.50;;
28427;SDS011;15662;49.128;8.520;2023-02-03T13:55:33;0.75;;;0.50;;
28427;SDS011;15662;49.128;8.520;2023-02-03T13:58:26;0.63;;;0.40;;
28427;SDS011;15662;49.128;8.520;2023-02-03T14:01:05;0.85;;;0.50;;
28427;SDS011;15662;49.128;8.520;2023-02-03T14:03:52;0.75;;;0.60;;
28427;SDS011;15662;49.128;8.520;2023-02-03T14:09:19;0.50;;;0.50;;
28427;SDS011;15662;49.128;8.520;2023-02-03T14:14:59;0.38;;;0.38;;
28427;SDS011;15662;49.128;8.520;2023-02-03T14:25:52;1.48;;;0.50;;
28427;SDS011;15662;49.128;8.520;2023-02-03T14:28:28;0.50;;;0.50;;
28427;SDS011;15662;49.128;8.520;2023-02-03T14:33:51;0.50;;;0.50;;
28427;SDS011;15662;49.128;8.520;2023-02-03T14:36:42;2.45;;;2.33;;
28427;SDS011;15662;49.128;8.520;2023-02-03T14:41:58;2.35;;;1.17;;
28427;SDS011;15662;49.128;8.520;2023-02-03T14:47:37;0.70;;;0.70;;
28427;SDS011;15662;49.128;8.520;2023-02-03T14:50:52;0.65;;;0.65;;
28427;SDS011;15662;49.128;8.520;2023-02-03T14:57:28;0.63;;;0.60;;
28427;SDS011;15662;49.128;8.520;2023-02-03T15:08:35;0.47;;;0.45;;
28427;SDS011;15662;49.128;8.520;2023-02-03T15:16:55;0.50;;;0.50;;
28427;SDS011;15662;49.128;8.520;2023-02-03T15:19:36;0.50;;;0.50;;
28427;SDS011;15662;49.128;8.520;2023-02-03T15:25:16;0.95;;;0.80;;
28427;SDS011;15662;49.128;8.520;2023-02-03T15:27:47;1.00;;;0.90;;
28427;SDS011;15662;49.128;8.520;2023-02-03T15:32:52;0.60;;;0.60;;
28427;SDS011;15662;49.128;8.520;2023-02-03T15:35:31;1.67;;;1.00;;
28427;SDS011;15662;49.128;8.520;2023-02-03T15:38:03;1.08;;;1.00;;
28427;SDS011;15662;49.128;8.520;2023-02-03T15:40:45;0.75;;;0.60;;
28427;SDS011;15662;49.128;8.520;2023-02-03T15:46:03;0.60;;;0.55;;
28427;SDS011;15662;49.128;8.520;2023-02-03T15:48:48;0.50;;;0.50;;
28427;SDS011;15662;49.128;8.520;2023-02-03T15:51:47;0.82;;;0.80;;
28427;SDS011;15662;49.128;8.520;2023-02-03T15:54:23;0.80;;;0.80;;
28427;SDS011;15662;49.128;8.520;2023-02-03T15:57:10;0.82;;;0.60;;
28427;SDS011;15662;49.128;8.520;2023-02-03T15:59:52;0.88;;;0.80;;
28427;SDS011;15662;49.128;8.520;2023-02-03T16:02:40;0.60;;;0.60;;
28427;SDS011;15662;49.128;8.520;2023-02-03T16:05:23;1.10;;;0.73;;
28427;SDS011;15662;49.128;8.520;2023-02-03T16:11:22;1.08;;;0.80;;
28427;SDS011;15662;49.128;8.520;2023-02-03T16:14:05;1.77;;;0.70;;
28427;SDS011;15662;49.128;8.520;2023-02-03T16:16:57;1.52;;;1.02;;
28427;SDS011;15662;49.128;8.520;2023-02-03T16:19:32;1.17;;;0.90;;
28427;SDS011;15662;49.128;8.520;2023-02-03T16:22:24;1.00;;;0.70;;
28427;SDS011;15662;49.128;8.520;2023-02-03T16:25:18;0.60;;;0.60;;
28427;SDS011;15662;49.128;8.520;2023-02-03T16:31:12;0.63;;;0.52;;
28427;SDS011;15662;49.128;8.520;2023-02-03T16:34:08;0.90;;;0.47;;
28427;SDS011;15662;49.128;8.520;2023-02-03T16:37:15;2.17;;;0.60;;
28427;SDS011;15662;49.128;8.520;2023-02-03T16:40:19;0.82;;;0.70;;
28427;SDS011;15662;49.128;8.520;2023-02-03T16:43:09;0.88;;;0.80;;
28427;SDS011;15662;49.128;8.520;2023-02-03T16:45:58;0.60;;;0.60;;
28427;SDS011;15662;49.128;8.520;2023-02-03T16:48:46;0.90;;;0.90;;
28427;SDS011;15662;49.128;8.520;2023-02-03T16:51:40;0.95;;;0.80;;
28427;SDS011;15662;49.128;8.520;2023-02-03T16:54:09;0.88;;;0.88;;
28427;SDS011;15662;49.128;8.520;2023-02-03T16:56:39;0.88;;;0.88;;
28427;SDS011;15662;49.128;8.520;2023-02-03T16:59:07;1.25;;;1.02;;
28427;SDS011;15662;49.128;8.520;2023-02-03T17:01:36;0.95;;;0.90;;
28427;SDS011;15662;49.128;8.520;2023-02-03T17:04:04;0.90;;;0.90;;
28427;SDS011;15662;49.128;8.520;2023-02-03T17:06:32;1.05;;;0.80;;
28427;SDS011;15662;49.128;8.520;2023-02-03T17:09:04;1.20;;;1.10;;
28427;SDS011;15662;49.128;8.520;2023-02-03T17:11:32;1.92;;;0.90;;
28427;SDS011;15662;49.128;8.520;2023-02-03T17:14:00;0.77;;;0.77;;
28427;SDS011;15662;49.128;8.520;2023-02-03T17:16:29;1.10;;;1.00;;
28427;SDS011;15662;49.128;8.520;2023-02-03T17:19:01;1.05;;;1.05;;
28427;SDS011;15662;49.128;8.520;2023-02-03T17:21:29;1.02;;;0.70;;
28427;SDS011;15662;49.128;8.520;2023-02-03T17:23:57;1.05;;;0.93;;
28427;SDS011;15662;49.128;8.520;2023-02-03T17:26:26;1.15;;;1.10;;
28427;SDS011;15662;49.128;8.520;2023-02-03T17:28:54;0.82;;;0.82;;
28427;SDS011;15662;49.128;8.520;2023-02-03T17:31:21;0.65;;;0.65;;
28427;SDS011;15662;49.128;8.520;2023-02-03T17:33:50;1.23;;;0.88;;
28427;SDS011;15662;49.128;8.520;2023-02-03T17:36:18;0.70;;;0.70;;
28427;SDS011;15662;49.128;8.520;2023-02-03T17:38:49;1.33;;;0.93;;
28427;SDS011;15662;49.128;8.520;2023-02-03T17:41:38;0.80;;;0.80;;
28427;SDS011;15662;49.128;8.520;2023-02-03T17:44:24;0.88;;;0.70;;
28427;SDS011;15662;49.128;8.520;2023-02-03T17:47:10;1.05;;;0.65;;
28427;SDS011;15662;49.128;8.520;2023-02-03T17:49:55;0.90;;;0.90;;
28427;SDS011;15662;49.128;8.520;2023-02-03T17:52:41;1.17;;;0.95;;
28427;SDS011;15662;49.128;8.520;2023-02-03T17:55:27;0.68;;;0.63;;
28427;SDS011;15662;49.128;8.520;2023-02-03T17:57:55;0.70;;;0.70;;
28427;SDS011;15662;49.128;8.520;2023-02-03T18:00:23;0.52;;;0.52;;
28427;SDS011;15662;49.128;8.520;2023-02-03T18:02:52;1.08;;;0.60;;
28427;SDS011;15662;49.128;8.520;2023-02-03T18:05:20;0.50;;;0.50;;
28427;SDS011;15662;49.128;8.520;2023-02-03T18:07:47;0.73;;;0.73;;
28427;SDS011;15662;49.128;8.520;2023-02-03T18:10:16;0.60;;;0.60;;
28427;SDS011;15662;49.128;8.520;2023-02-03T18:12:44;0.90;;;0.80;;
28427;SDS011;15662;49.128;8.520;2023-02-03T18:15:12;0.68;;;0.68;;
28427;SDS011;15662;49.128;8.520;2023-02-03T18:17:43;1.75;;;0.80;;
28427;SDS011;15662;49.128;8.520;2023-02-03T18:20:11;0.88;;;0.88;;
28427;SDS011;15662;49.128;8.520;2023-02-03T18:22:39;0.88;;;0.80;;
28427;SDS011;15662;49.128;8.520;2023-02-03T18:25:09;0.95;;;0.95;;
28427;SDS011;15662;49.128;8.520;2023-02-03T18:27:38;1.10;;;0.98;;
28427;SDS011;15662;49.128;8.520;2023-02-03T18:30:06;1.13;;;1.08;;